LKPREPZG

Guest
Details From LKPR - Praha - Ruzyne
To EPZG - ZIELONA GORA BABIMOST
Flight Number -
Tags generated
Created
Modified
Stats Distance 135 nm / 251 km
Max Altitude 17,500 ft / 5,334 m
Waypoints 3
Social Downloads 0
Likes 0
Share VATSIM

Download

Looking for another format? Having issues loading an existing format? Contact us
Advertisement - Login to hide

Notes

Basic altitude profile: - Ascent Rate: 2500ft/min - Ascent Speed: 250kts - Cruise Altitude: 35000ft - Cruise Speed: 420kts - Descent Rate: 1500ft/min - Descent Speed: 250kts Options: - Use NATs: yes - Use PACOTS: yes - Use low airways: yes - Use high airways: yes

Route

LKPR GUDON EPZG

ID Type Via Altitude Latitude Longitude Leg Dist Tot Dist Heading (true) Name
O LKPR APT - 0 ft / 0 m 50.10114˚ 14.26296˚ - 0 nm - Praha - Ruzyne
GUDON FIX - 17,500 ft / 5,334 m 50.90899˚ 14.85564˚ 53 nm 53 nm 25° / 25° -
O EPZG APT - 0 ft / 0 m 52.13863˚ 15.79840˚ 81 nm 135 nm 25° / 26° ZIELONA GORA BABIMOST

Altitude Profile

Advertisement - Login to hide

LKPR

Details ICAO LKPR (PRG)
Name Praha - Ruzyne
Region Czech Republic
Timezone Europe/Prague (UTC+1.0)
Stats Elevation 1,246 ft / 380 m (AMSL)
Location 50.101144° 14.262963°
Runways 3
Magnetic Variation 3.862° E

METAR

LKPR 140234Z 18011KT 9999 -RASN OVC018 02/00 Q0994 RMK REG QNH 0988

Decode

TAF

TAF LKPR 132300Z 1400/1506 22016KT 9999 BKN025 TEMPO 1402/1420 24020G36KT TEMPO 1402/1412 4000 RASN BKN013 PROB30 TEMPO 1402/1405 -FZRASN PROB30 TEMPO 1403/1415 25024G40KT BECMG 1412/1414 9999 SCT030 BECMG 1421/1423 9999 BKN020 TEMPO 1423/1506 4000 RASN BKN013 TEMPO 1504/1506 24020G36KT

Decode

Departure Runways

ID Width Length Bearing (true) Bearing (mag) Surface Threshold Offset Overrun Length
04 197 ft / 60 m 6,932 ft / 2,113 m 36.80° 32.94° Asphalt 0 ft / 0 m 0 ft / 0 m
06 148 ft / 45 m 12,160 ft / 3,706 m 64.92° 61.06° Concrete 0 ft / 0 m 0 ft / 0 m
12 148 ft / 45 m 10,622 ft / 3,238 m 126.99° 123.13° Concrete 0 ft / 0 m 0 ft / 0 m
22 197 ft / 60 m 6,932 ft / 2,113 m 216.81° 212.95° Asphalt 0 ft / 0 m 591 ft / 180 m
24 148 ft / 45 m 12,160 ft / 3,706 m 244.96° 241.10° Concrete 0 ft / 0 m 0 ft / 0 m
30 148 ft / 45 m 10,622 ft / 3,238 m 307.01° 303.15° Concrete 0 ft / 0 m 0 ft / 0 m

EPZG

Details ICAO EPZG (IEG)
Name ZIELONA GORA BABIMOST
Region Poland
Timezone Europe/Warsaw (UTC+1.0)
Stats Elevation 193 ft / 59 m (AMSL)
Location 52.138633° 15.798400°
Runways 1
Magnetic Variation 4.426° E

METAR

EPZG 140230Z 14010KT 100V190 9999 SCT047 03/M03 Q0991

Decode

TAF

Not found

Destination Runways

ID Width Length Bearing (true) Bearing (mag) Surface Threshold Offset Overrun Length
06 197 ft / 60 m 8,169 ft / 2,490 m 64.50° 60.07° Concrete 0 ft / 0 m 0 ft / 0 m
24 197 ft / 60 m 8,169 ft / 2,490 m 244.52° 240.09° Concrete 0 ft / 0 m 0 ft / 0 m